Time;durP1;ratioP1;P1;durP2;ratioP2;P2;SDS_P1;SDS_P2;PMS_P1;PMS_P2;Temp;Humidity;BMP_temperature;BMP_pressure;BME280_temperature;BME280_humidity;BME280_pressure;Samples;Min_cycle;Max_cycle;Signal;HPM_P1;HPM_P2
2021/03/06 00:00:15;;;;;;;5.97;4.00;;;1.20;45.70;;;;;;5060673;28;20638;-79
2021/03/06 00:02:42;;;;;;;6.65;4.47;;;1.20;46.50;;;;;;5069637;28;20207;-80
2021/03/06 00:05:11;;;;;;;4.78;3.70;;;1.30;44.60;;;;;;5074749;28;20221;-80
2021/03/06 00:07:39;;;;;;;6.25;3.80;;;1.30;44.00;;;;;;5093703;28;20252;-79
2021/03/06 00:10:10;;;;;;;6.03;4.35;;;1.30;43.80;;;;;;5092747;28;20209;-78
2021/03/06 00:12:36;;;;;;;5.35;3.83;;;1.40;42.80;;;;;;5073634;28;20237;-79
2021/03/06 00:15:04;;;;;;;6.00;4.30;;;1.30;42.90;;;;;;5080096;28;20201;-79
2021/03/06 00:17:30;;;;;;;7.00;4.13;;;1.30;43.40;;;;;;5076751;28;20212;-80
2021/03/06 00:19:57;;;;;;;5.05;3.90;;;1.20;43.10;;;;;;5065604;28;20226;-79
2021/03/06 00:22:23;;;;;;;5.10;3.90;;;1.20;43.90;;;;;;5072186;28;20210;-79
2021/03/06 00:24:51;;;;;;;4.97;3.80;;;1.20;44.80;;;;;;5074833;28;20202;-79
2021/03/06 00:27:18;;;;;;;6.43;4.22;;;1.10;44.50;;;;;;5065983;28;20202;-78
2021/03/06 00:29:44;;;;;;;5.13;4.03;;;1.10;44.50;;;;;;5076670;28;20214;-79
2021/03/06 00:32:11;;;;;;;5.43;3.65;;;1.10;44.70;;;;;;5076490;28;20202;-79
2021/03/06 00:34:38;;;;;;;4.95;3.50;;;1.00;44.60;;;;;;5076259;28;20212;-78
2021/03/06 00:37:07;;;;;;;7.18;4.00;;;0.90;44.70;;;;;;5067382;28;20283;-80
2021/03/06 00:39:33;;;;;;;6.68;4.40;;;0.90;44.70;;;;;;5060995;28;20229;-81
2021/03/06 00:42:01;;;;;;;8.15;5.10;;;1.00;45.30;;;;;;5060582;28;20207;-79
2021/03/06 00:44:27;;;;;;;6.78;4.25;;;0.70;45.70;;;;;;5061633;28;20697;-78
2021/03/06 00:46:54;;;;;;;10.75;5.00;;;0.70;46.00;;;;;;5063510;28;20211;-78
2021/03/06 00:49:22;;;;;;;6.45;4.32;;;0.80;45.80;;;;;;5065378;28;20253;-77
2021/03/06 00:51:49;;;;;;;6.53;4.28;;;0.70;45.60;;;;;;5072986;28;20209;-79
2021/03/06 00:54:17;;;;;;;6.55;4.65;;;0.60;45.80;;;;;;5077383;28;20213;-78
2021/03/06 00:56:46;;;;;;;6.30;4.07;;;0.60;46.00;;;;;;5080632;28;20198;-80
2021/03/06 00:59:16;;;;;;;6.15;3.75;;;0.70;46.40;;;;;;5081232;28;20234;-78
2021/03/06 01:01:46;;;;;;;6.68;4.60;;;0.70;46.00;;;;;;5084486;28;20707;-79
2021/03/06 01:04:14;;;;;;;5.40;4.13;;;0.60;46.10;;;;;;5091118;28;20213;-77
2021/03/06 01:06:43;;;;;;;7.95;5.15;;;0.50;46.40;;;;;;5092269;28;20563;-78
2021/03/06 01:09:12;;;;;;;7.55;5.25;;;0.40;46.50;;;;;;5094427;28;20222;-77
2021/03/06 01:11:40;;;;;;;6.20;4.38;;;0.30;46.60;;;;;;5096157;28;20205;-78
2021/03/06 01:14:07;;;;;;;6.22;4.78;;;0.30;47.10;;;;;;5077840;28;20276;-78
2021/03/06 01:16:34;;;;;;;6.38;4.70;;;0.20;47.60;;;;;;5076461;28;20236;-77
2021/03/06 01:19:01;;;;;;;7.72;4.85;;;0.10;47.70;;;;;;5075302;28;20248;-79
2021/03/06 01:21:28;;;;;;;6.00;3.90;;;0.00;48.40;;;;;;5074946;28;20211;-78
2021/03/06 01:23:54;;;;;;;7.78;4.75;;;-0.10;49.00;;;;;;5094529;28;20206;-77
2021/03/06 01:26:21;;;;;;;7.30;5.15;;;-0.10;49.50;;;;;;5095200;28;20198;-77
2021/03/06 01:28:47;;;;;;;6.03;4.57;;;-0.20;50.40;;;;;;5095579;28;20228;-76
2021/03/06 01:31:13;;;;;;;5.65;4.30;;;-0.20;50.80;;;;;;5095573;28;20202;-77
2021/03/06 01:33:41;;;;;;;6.72;5.05;;;-0.20;50.80;;;;;;5080720;28;20209;-79
2021/03/06 01:36:07;;;;;;;8.30;5.13;;;-0.20;50.80;;;;;;5077797;28;20214;-77
2021/03/06 01:38:34;;;;;;;11.98;6.07;;;-0.20;50.80;;;;;;5077650;28;20229;-76
2021/03/06 01:41:01;;;;;;;6.10;4.40;;;-0.20;51.50;;;;;;5076652;28;20203;-80
2021/03/06 01:43:28;;;;;;;6.15;4.40;;;-0.20;50.90;;;;;;5086536;28;20205;-77
2021/03/06 01:45:54;;;;;;;6.95;4.45;;;-0.20;51.10;;;;;;5097429;28;20206;-77
2021/03/06 01:48:21;;;;;;;6.38;4.82;;;-0.30;51.40;;;;;;5099323;28;20222;-78
2021/03/06 01:50:50;;;;;;;5.63;4.95;;;-0.10;50.90;;;;;;5099092;28;20198;-78
2021/03/06 01:53:16;;;;;;;5.82;4.47;;;-0.20;50.80;;;;;;5090636;28;20189;-79
2021/03/06 01:55:46;;;;;;;5.60;4.60;;;-0.10;50.80;;;;;;5079409;28;20217;-77
2021/03/06 01:58:14;;;;;;;6.60;4.10;;;-0.20;50.80;;;;;;5079366;28;20256;-79
2021/03/06 02:00:41;;;;;;;7.10;4.70;;;-0.20;50.80;;;;;;5078497;28;20207;-78
2021/03/06 02:03:07;;;;;;;7.25;4.47;;;-0.10;50.90;;;;;;5082324;28;20194;-78
2021/03/06 02:05:34;;;;;;;5.57;4.45;;;-0.10;50.80;;;;;;5095570;28;20209;-76
2021/03/06 02:08:03;;;;;;;6.53;4.97;;;-0.20;50.80;;;;;;5087346;28;20222;-77
2021/03/06 02:10:32;;;;;;;8.68;4.45;;;-0.20;50.80;;;;;;5072589;28;20265;-77
2021/03/06 02:13:08;;;;;;;7.05;4.75;;;-0.20;50.80;;;;;;5070629;28;20218;-78
2021/03/06 02:15:44;;;;;;;8.48;5.22;;;-0.20;50.80;;;;;;5072399;28;20194;-78
2021/03/06 02:18:16;;;;;;;6.00;4.20;;;-0.30;50.70;;;;;;5078328;28;20221;-77
2021/03/06 02:20:50;;;;;;;7.80;4.40;;;-0.30;50.70;;;;;;5094299;28;20209;-77
2021/03/06 02:23:54;;;;;;;5.40;4.28;;;-0.30;50.70;;;;;;5079728;28;20198;-76
2021/03/06 02:26:42;;;;;;;5.07;4.18;;;-0.30;50.70;;;;;;5076459;28;20212;-75
2021/03/06 02:29:37;;;;;;;6.85;4.93;;;-0.40;50.60;;;;;;5082333;28;20245;-76
2021/03/06 02:32:09;;;;;;;4.97;4.38;;;-0.50;50.50;;;;;;5077863;28;20638;-76
2021/03/06 02:34:39;;;;;;;8.60;4.35;;;-0.60;50.50;;;;;;5060641;28;20201;-76
2021/03/06 02:37:09;;;;;;;6.30;4.28;;;-0.60;51.40;;;;;;5060029;28;20591;-75
2021/03/06 02:39:41;;;;;;;7.60;4.32;;;-0.70;52.10;;;;;;5057201;28;20261;-76
2021/03/06 02:42:10;;;;;;;7.47;4.75;;;-0.70;51.80;;;;;;5057063;28;20194;-76
2021/03/06 02:44:38;;;;;;;8.55;5.00;;;-0.70;52.30;;;;;;5061909;28;20198;-75
2021/03/06 02:47:04;;;;;;;7.18;4.80;;;-0.70;52.70;;;;;;5065968;28;20225;-77
2021/03/06 02:49:31;;;;;;;7.40;4.38;;;-0.70;52.70;;;;;;5058336;28;20226;-76
2021/03/06 02:51:57;;;;;;;6.88;4.95;;;-0.70;52.70;;;;;;5057963;28;20222;-76
2021/03/06 02:54:25;;;;;;;6.15;4.68;;;-0.70;53.10;;;;;;5087057;28;20229;-77
2021/03/06 02:56:51;;;;;;;7.90;5.47;;;-0.80;52.90;;;;;;5070919;28;20570;-76
2021/03/06 02:59:44;;;;;;;6.65;5.50;;;-0.80;53.20;;;;;;5086506;28;20234;-76
2021/03/06 03:02:19;;;;;;;7.47;5.03;;;-0.90;53.80;;;;;;5076810;28;20210;-75
2021/03/06 03:05:04;;;;;;;10.15;5.45;;;-0.90;53.80;;;;;;5076609;28;20186;-77
2021/03/06 03:07:36;;;;;;;6.13;4.90;;;-1.00;53.50;;;;;;5058833;28;20195;-76
2021/03/06 03:10:08;;;;;;;6.85;4.53;;;-0.90;53.80;;;;;;5064913;28;20190;-76
2021/03/06 03:12:38;;;;;;;9.13;5.72;;;-0.90;54.30;;;;;;5064363;28;20206;-76
2021/03/06 03:15:11;;;;;;;7.47;4.07;;;-0.90;54.20;;;;;;5069165;28;20218;-77
2021/03/06 03:17:42;;;;;;;7.47;5.10;;;-1.00;54.40;;;;;;5066511;28;20249;-77
2021/03/06 03:20:20;;;;;;;6.10;4.53;;;-1.00;54.30;;;;;;5068784;28;20214;-76
2021/03/06 03:22:49;;;;;;;7.25;4.85;;;-1.00;54.30;;;;;;5071565;28;20245;-76
2021/03/06 03:25:17;;;;;;;7.03;5.07;;;-1.00;54.70;;;;;;5072835;28;20210;-76
2021/03/06 03:27:44;;;;;;;9.93;5.95;;;-1.00;53.90;;;;;;5072161;28;20262;-76
2021/03/06 03:30:15;;;;;;;5.30;4.60;;;-1.00;53.90;;;;;;5072879;28;20214;-77
2021/03/06 03:32:43;;;;;;;5.95;4.82;;;-1.10;54.20;;;;;;5075916;28;20210;-76
2021/03/06 03:35:12;;;;;;;10.00;4.95;;;-1.20;54.40;;;;;;5073004;28;20202;-76
2021/03/06 03:37:40;;;;;;;10.02;4.60;;;-1.20;54.50;;;;;;5075983;28;20292;-76
2021/03/06 03:40:08;;;;;;;9.32;5.15;;;-1.20;54.50;;;;;;5076017;28;20215;-76
2021/03/06 03:42:35;;;;;;;10.15;5.90;;;-1.20;54.80;;;;;;5074252;28;20213;-77
2021/03/06 03:45:04;;;;;;;15.10;5.28;;;-1.10;55.20;;;;;;5072814;28;20233;-76
2021/03/06 03:47:31;;;;;;;6.15;4.63;;;-1.20;54.50;;;;;;5071832;28;20274;-76
2021/03/06 03:49:59;;;;;;;7.18;5.05;;;-1.20;54.80;;;;;;5072801;28;20671;-78
2021/03/06 03:52:25;;;;;;;6.03;4.07;;;-1.20;54.50;;;;;;5086728;28;20228;-77
2021/03/06 03:54:52;;;;;;;7.55;5.13;;;-1.30;54.40;;;;;;5094034;28;20224;-75
2021/03/06 03:57:18;;;;;;;6.78;4.95;;;-1.20;55.40;;;;;;5078155;28;20308;-75
2021/03/06 03:59:45;;;;;;;7.32;5.32;;;-1.30;55.30;;;;;;5062914;28;20230;-75
2021/03/06 04:02:20;;;;;;;6.63;4.68;;;-1.20;55.80;;;;;;5073820;28;20198;-75
2021/03/06 04:04:47;;;;;;;7.32;4.97;;;-1.30;56.30;;;;;;5079038;28;20238;-76
2021/03/06 04:07:14;;;;;;;8.60;5.13;;;-1.30;56.10;;;;;;5078881;28;20250;-76
2021/03/06 04:09:40;;;;;;;7.40;5.20;;;-1.40;55.40;;;;;;5078338;28;20246;-76
2021/03/06 04:12:07;;;;;;;9.27;5.20;;;-1.40;56.10;;;;;;5078185;28;20215;-78
2021/03/06 04:14:34;;;;;;;8.05;5.40;;;-1.50;56.20;;;;;;5078203;28;20178;-77
2021/03/06 04:17:00;;;;;;;7.25;5.07;;;-1.50;56.60;;;;;;5078012;28;20179;-77
2021/03/06 04:19:27;;;;;;;8.93;5.22;;;-1.50;56.70;;;;;;5077898;28;20210;-77
2021/03/06 04:21:53;;;;;;;8.10;4.97;;;-1.50;56.60;;;;;;5090944;28;20204;-77
2021/03/06 04:24:21;;;;;;;7.78;4.93;;;-1.50;57.00;;;;;;5097413;28;20210;-77
2021/03/06 04:26:49;;;;;;;7.20;5.10;;;-1.50;56.80;;;;;;5095525;28;20241;-77
2021/03/06 04:29:16;;;;;;;6.55;4.60;;;-1.50;56.90;;;;;;5097044;28;20218;-75
2021/03/06 04:31:43;;;;;;;5.82;4.43;;;-1.60;56.90;;;;;;5090201;28;20204;-77
2021/03/06 04:34:10;;;;;;;6.75;4.47;;;-1.40;57.20;;;;;;5079867;28;20206;-76
2021/03/06 04:36:37;;;;;;;6.38;4.53;;;-1.40;55.80;;;;;;5086501;28;20230;-76
2021/03/06 04:39:04;;;;;;;5.85;4.60;;;-1.30;55.90;;;;;;5098187;28;20220;-75
2021/03/06 04:41:31;;;;;;;6.28;4.35;;;-1.30;55.60;;;;;;5093124;28;20221;-76
2021/03/06 04:43:58;;;;;;;10.85;5.10;;;-1.40;55.20;;;;;;5093005;28;20233;-75
2021/03/06 04:46:25;;;;;;;6.32;4.65;;;-1.40;54.90;;;;;;5095462;28;20198;-78
2021/03/06 04:48:51;;;;;;;7.38;4.45;;;-1.40;55.40;;;;;;5099648;28;20217;-77
2021/03/06 04:51:18;;;;;;;6.68;4.60;;;-1.40;54.70;;;;;;5094933;28;20207;-75
2021/03/06 04:53:44;;;;;;;5.85;4.28;;;-1.50;55.70;;;;;;5079253;28;20191;-77
2021/03/06 04:56:11;;;;;;;8.20;5.25;;;-1.40;54.90;;;;;;5115266;23;20256;-82
2021/03/06 04:58:38;;;;;;;7.22;4.32;;;-1.40;55.00;;;;;;5098905;28;20193;-83
2021/03/06 05:01:04;;;;;;;5.95;4.15;;;-1.30;54.40;;;;;;5095059;28;20202;-83
2021/03/06 05:03:31;;;;;;;6.90;4.07;;;-1.40;54.40;;;;;;5091499;28;20213;-83
2021/03/06 05:05:57;;;;;;;7.65;4.50;;;-1.40;54.40;;;;;;5076677;28;20253;-82
2021/03/06 05:08:24;;;;;;;5.10;3.65;;;-1.50;54.30;;;;;;5068476;28;20238;-81
2021/03/06 05:10:50;;;;;;;7.00;4.68;;;-1.60;54.20;;;;;;5067679;28;20207;-83
2021/03/06 05:13:17;;;;;;;6.07;4.65;;;-1.50;54.30;;;;;;5056935;28;20218;-82
2021/03/06 05:15:44;;;;;;;5.53;4.20;;;-1.50;54.80;;;;;;5053654;28;20238;-82
2021/03/06 05:18:11;;;;;;;5.72;4.30;;;-1.50;54.30;;;;;;5058309;28;20250;-82
2021/03/06 05:20:37;;;;;;;8.35;4.30;;;-1.60;54.20;;;;;;5045784;28;20227;-82
2021/03/06 05:23:03;;;;;;;7.72;5.03;;;-1.60;54.20;;;;;;5068197;28;20212;-82
2021/03/06 05:25:30;;;;;;;7.00;4.70;;;-1.50;54.30;;;;;;5078340;28;20210;-82
2021/03/06 05:27:56;;;;;;;8.68;4.50;;;-1.50;54.30;;;;;;5067707;28;20310;-82
2021/03/06 05:30:23;;;;;;;5.72;4.22;;;-1.50;54.30;;;;;;5051255;28;20214;-83
2021/03/06 05:32:50;;;;;;;9.13;4.82;;;-1.50;54.00;;;;;;5050178;28;20196;-83
2021/03/06 05:35:17;;;;;;;7.78;4.15;;;-1.50;53.70;;;;;;5049665;28;20223;-83
2021/03/06 05:37:44;;;;;;;6.25;4.38;;;-1.50;53.30;;;;;;5043199;28;20226;-83
2021/03/06 05:40:10;;;;;;;5.60;4.68;;;-1.50;53.00;;;;;;5050577;28;20222;-81
2021/03/06 05:42:38;;;;;;;6.68;5.20;;;-1.50;52.80;;;;;;5060111;28;20198;-82
2021/03/06 05:45:07;;;;;;;6.22;4.35;;;-1.50;53.00;;;;;;5076106;28;20229;-83
2021/03/06 05:47:33;;;;;;;5.88;4.35;;;-1.50;52.70;;;;;;5062519;28;20265;-82
2021/03/06 05:50:03;;;;;;;6.47;4.80;;;-1.50;53.00;;;;;;5040586;28;20203;-80
2021/03/06 05:52:30;;;;;;;7.80;4.68;;;-1.60;52.90;;;;;;5040157;28;20219;-82
2021/03/06 05:54:59;;;;;;;7.20;4.72;;;-1.60;53.10;;;;;;5072312;28;20218;-83
2021/03/06 05:57:26;;;;;;;5.60;4.72;;;-1.60;53.60;;;;;;5076891;28;20213;-81
2021/03/06 05:59:52;;;;;;;7.25;4.72;;;-1.50;53.10;;;;;;5057146;28;20239;-82
2021/03/06 06:02:20;;;;;;;6.85;4.85;;;-1.30;52.10;;;;;;5049116;28;20204;-81
2021/03/06 06:04:47;;;;;;;6.88;4.47;;;-1.20;51.50;;;;;;5041244;28;20246;-81
2021/03/06 06:07:17;;;;;;;8.23;4.25;;;-1.20;51.00;;;;;;5055712;28;20231;-83
2021/03/06 06:09:43;;;;;;;5.15;3.70;;;-1.10;50.50;;;;;;5057355;28;20184;-80
2021/03/06 06:12:11;;;;;;;4.63;3.78;;;-1.10;50.30;;;;;;5051246;28;20261;-79
2021/03/06 06:14:38;;;;;;;6.50;4.22;;;-1.10;50.00;;;;;;5046056;28;20227;-79
2021/03/06 06:17:06;;;;;;;4.43;3.25;;;-1.10;50.00;;;;;;5067946;28;20198;-80
2021/03/06 06:19:33;;;;;;;4.80;4.20;;;-1.00;50.10;;;;;;5073516;28;20198;-80
2021/03/06 06:22:00;;;;;;;6.75;4.13;;;-0.90;50.20;;;;;;5075210;28;20218;-87
2021/03/06 06:24:28;;;;;;;4.85;3.40;;;-1.00;50.10;;;;;;5057183;28;20259;-80
2021/03/06 06:26:55;;;;;;;4.97;3.83;;;-1.00;50.10;;;;;;5051987;28;20207;-82
2021/03/06 06:29:38;;;;;;;5.10;3.78;;;-1.00;50.10;;;;;;5047332;28;20286;-80
2021/03/06 06:32:06;;;;;;;11.30;4.82;;;-0.90;50.20;;;;;;5045347;28;20227;-80
2021/03/06 06:34:35;;;;;;;8.98;4.95;;;-1.00;49.80;;;;;;5047553;28;20291;-82
2021/03/06 06:37:08;;;;;;;6.50;3.85;;;-0.90;50.20;;;;;;5055872;28;20222;-81
2021/03/06 06:39:36;;;;;;;7.57;4.38;;;-0.90;50.20;;;;;;5057571;28;20183;-84
2021/03/06 06:42:02;;;;;;;5.05;4.35;;;-0.90;50.20;;;;;;5055256;28;20199;-82
2021/03/06 06:44:30;;;;;;;7.75;4.50;;;-0.90;49.50;;;;;;5054081;28;20234;-83
2021/03/06 06:46:58;;;;;;;6.07;4.45;;;-0.80;49.50;;;;;;5050627;28;20207;-81
2021/03/06 06:49:26;;;;;;;5.00;4.10;;;-0.80;49.10;;;;;;5047795;28;20304;-80
2021/03/06 06:52:00;;;;;;;7.22;4.75;;;-0.70;49.30;;;;;;5045365;28;20203;-79
2021/03/06 06:54:27;;;;;;;5.75;3.78;;;-0.70;48.80;;;;;;5041074;28;20263;-80
2021/03/06 06:57:12;;;;;;;6.00;4.57;;;-0.50;48.30;;;;;;5040209;28;20660;-81
2021/03/06 06:59:39;;;;;;;5.45;3.88;;;-0.60;48.50;;;;;;5056315;28;20210;-79
2021/03/06 07:02:07;;;;;;;4.82;4.35;;;-0.50;47.70;;;;;;5059072;28;20199;-80
2021/03/06 07:04:48;;;;;;;6.45;4.10;;;-0.50;47.70;;;;;;5047383;28;20314;-79
2021/03/06 07:07:16;;;;;;;6.88;4.60;;;-0.40;47.40;;;;;;5040005;28;20207;-79
2021/03/06 07:10:08;;;;;;;5.60;4.15;;;-0.40;47.70;;;;;;5045475;28;20231;-80
2021/03/06 07:12:36;;;;;;;5.05;3.50;;;-0.30;46.60;;;;;;5059132;28;20246;-82
2021/03/06 07:15:12;;;;;;;5.57;3.80;;;-0.20;46.10;;;;;;5069693;28;20226;-81
2021/03/06 07:17:40;;;;;;;5.18;3.95;;;-0.20;45.70;;;;;;5073436;28;20236;-79
2021/03/06 07:20:10;;;;;;;4.25;3.65;;;-0.10;45.70;;;;;;5072209;28;20211;-79
2021/03/06 07:22:37;;;;;;;7.13;4.50;;;0.00;45.60;;;;;;5057234;28;20270;-81
2021/03/06 07:25:05;;;;;;;5.85;4.55;;;0.10;45.30;;;;;;5051464;28;20250;-82
2021/03/06 07:27:31;;;;;;;6.57;4.40;;;0.10;44.80;;;;;;5071882;28;20222;-80
2021/03/06 07:29:59;;;;;;;4.63;4.22;;;0.10;44.20;;;;;;5064771;28;20226;-80
2021/03/06 07:32:32;;;;;;;3.30;2.60;;;0.20;44.10;;;;;;5062113;28;20214;-79
2021/03/06 07:35:04;;;;;;;4.88;4.10;;;0.20;43.40;;;;;;5059962;28;20741;-81
2021/03/06 07:37:32;;;;;;;4.78;4.05;;;0.30;44.30;;;;;;5067195;28;20202;-86
2021/03/06 07:40:00;;;;;;;4.95;3.70;;;0.40;44.20;;;;;;5066219;28;20183;-83
2021/03/06 07:42:46;;;;;;;6.80;4.18;;;0.40;43.10;;;;;;5055546;28;20287;-78
2021/03/06 07:45:16;;;;;;;3.58;3.22;;;0.50;43.00;;;;;;5053922;28;20211;-79
2021/03/06 07:47:43;;;;;;;4.70;3.50;;;0.60;42.80;;;;;;5047203;28;20472;-81
2021/03/06 07:50:19;;;;;;;11.60;4.50;;;0.60;42.60;;;;;;5051353;28;20670;-80
2021/03/06 07:52:46;;;;;;;5.53;3.35;;;0.60;42.10;;;;;;5059017;28;20282;-80
2021/03/06 07:55:14;;;;;;;7.57;4.20;;;0.70;42.10;;;;;;5050358;28;20249;-80
2021/03/06 07:58:09;;;;;;;5.13;4.30;;;0.70;41.70;;;;;;5041777;28;20719;-80
2021/03/06 08:00:44;;;;;;;5.25;3.70;;;0.80;41.40;;;;;;5043006;28;20265;-79
2021/03/06 08:03:41;;;;;;;4.57;3.80;;;0.80;41.10;;;;;;5045525;28;20203;-82
2021/03/06 08:06:19;;;;;;;6.95;5.00;;;0.90;40.20;;;;;;5057476;28;20203;-81
2021/03/06 08:09:08;;;;;;;5.57;3.92;;;0.90;40.20;;;;;;5058599;28;20230;-77
2021/03/06 08:11:52;;;;;;;5.40;4.30;;;0.90;39.40;;;;;;5056630;28;20198;-78
2021/03/06 08:14:33;;;;;;;3.88;3.45;;;1.10;40.40;;;;;;5052078;28;20228;-78
2021/03/06 08:17:00;;;;;;;5.75;3.40;;;1.10;39.80;;;;;;5076501;28;20194;-78
2021/03/06 08:19:32;;;;;;;5.25;4.65;;;1.10;39.40;;;;;;5056384;28;20255;-77
2021/03/06 08:22:16;;;;;;;5.43;3.83;;;1.30;39.60;;;;;;5043403;28;20257;-77
2021/03/06 08:24:43;;;;;;;3.95;3.25;;;1.30;38.60;;;;;;5046810;28;20223;-78
2021/03/06 08:27:23;;;;;;;5.38;4.10;;;1.30;38.20;;;;;;5061842;28;20230;-78
2021/03/06 08:29:57;;;;;;;4.97;3.70;;;1.40;38.90;;;;;;5074195;28;20588;-78
2021/03/06 08:32:32;;;;;;;4.78;4.00;;;1.50;38.00;;;;;;5092738;28;20186;-77
2021/03/06 08:35:00;;;;;;;7.18;4.35;;;1.60;38.10;;;;;;5074902;28;20213;-78
2021/03/06 08:37:34;;;;;;;4.93;4.00;;;1.80;38.00;;;;;;5065204;28;20344;-78
2021/03/06 08:40:05;;;;;;;4.93;3.97;;;1.80;37.10;;;;;;5069380;28;20194;-80
2021/03/06 08:42:33;;;;;;;4.40;4.00;;;1.90;37.20;;;;;;5076174;28;20205;-79
2021/03/06 08:45:01;;;;;;;5.60;4.40;;;2.00;36.70;;;;;;5064667;28;20226;-78
2021/03/06 08:47:29;;;;;;;5.90;4.07;;;2.00;36.70;;;;;;5069560;28;20206;-78
2021/03/06 08:49:58;;;;;;;5.75;4.40;;;2.10;36.60;;;;;;5066740;28;20225;-80
2021/03/06 08:52:28;;;;;;;4.18;3.65;;;2.30;36.30;;;;;;5062842;28;20613;-78
2021/03/06 08:54:55;;;;;;;3.88;3.40;;;2.30;35.70;;;;;;5063230;28;20234;-80
2021/03/06 08:57:27;;;;;;;7.32;4.40;;;2.40;35.80;;;;;;5049935;28;20212;-77
2021/03/06 09:00:00;;;;;;;3.67;3.25;;;2.50;35.30;;;;;;5052578;28;20210;-77
2021/03/06 09:02:29;;;;;;;5.88;4.25;;;2.30;35.30;;;;;;5057618;28;20218;-80
2021/03/06 09:05:09;;;;;;;5.25;3.80;;;2.50;35.60;;;;;;5066457;28;20317;-79
2021/03/06 09:07:38;;;;;;;7.40;3.75;;;2.50;34.50;;;;;;5065400;28;20207;-78
2021/03/06 09:10:28;;;;;;;4.00;3.60;;;2.60;35.30;;;;;;5064263;28;20689;-80
2021/03/06 09:12:57;;;;;;;6.72;4.15;;;2.60;34.10;;;;;;5060320;28;20717;-79
2021/03/06 09:15:43;;;;;;;6.03;4.03;;;2.70;34.10;;;;;;5064285;28;20226;-78
2021/03/06 09:18:12;;;;;;;4.88;4.15;;;2.80;34.20;;;;;;5074935;28;20664;-78
2021/03/06 09:20:56;;;;;;;5.65;4.30;;;2.90;34.30;;;;;;5057801;28;20274;-80
2021/03/06 09:23:31;;;;;;;5.53;4.15;;;2.90;34.30;;;;;;5054406;28;20203;-78
2021/03/06 09:25:59;;;;;;;8.02;4.18;;;2.90;34.30;;;;;;5074895;28;20214;-79
2021/03/06 09:28:28;;;;;;;6.30;5.13;;;3.10;34.50;;;;;;5075057;28;20256;-79
2021/03/06 09:30:55;;;;;;;5.20;4.45;;;3.20;34.50;;;;;;5069529;28;20226;-80
2021/03/06 09:33:24;;;;;;;6.70;5.00;;;3.30;34.30;;;;;;5063036;28;20756;-78
2021/03/06 09:36:00;;;;;;;6.25;4.70;;;3.30;34.70;;;;;;5064266;28;20228;-79
2021/03/06 09:38:26;;;;;;;6.47;4.55;;;3.30;34.00;;;;;;5048708;28;20286;-79
2021/03/06 09:40:54;;;;;;;5.22;3.75;;;3.50;34.00;;;;;;5046319;28;20203;-79
2021/03/06 09:43:25;;;;;;;7.22;5.10;;;3.70;33.20;;;;;;5046677;28;20204;-79
2021/03/06 09:45:52;;;;;;;6.00;4.78;;;3.70;32.80;;;;;;5041486;28;20362;-78
2021/03/06 09:48:18;;;;;;;6.05;4.60;;;3.60;33.40;;;;;;5040789;28;20202;-78
2021/03/06 09:50:46;;;;;;;5.32;4.72;;;3.70;32.30;;;;;;5041393;28;20229;-79
2021/03/06 09:53:16;;;;;;;6.93;4.47;;;3.80;32.30;;;;;;5051205;28;20202;-80
2021/03/06 09:55:43;;;;;;;6.75;4.72;;;4.00;32.30;;;;;;5061708;28;20218;-78
2021/03/06 09:58:21;;;;;;;7.00;5.03;;;4.10;32.50;;;;;;5075194;28;20270;-78
2021/03/06 10:00:48;;;;;;;5.85;4.70;;;4.20;31.40;;;;;;5062785;28;20229;-78
2021/03/06 10:03:31;;;;;;;4.93;4.43;;;4.20;31.00;;;;;;5065437;28;20290;-79
2021/03/06 10:06:00;;;;;;;6.78;5.20;;;4.10;30.40;;;;;;5061693;28;20222;-78
2021/03/06 10:08:29;;;;;;;5.80;4.95;;;4.10;30.40;;;;;;5063903;28;20226;-79
2021/03/06 10:10:56;;;;;;;5.22;4.65;;;4.30;30.60;;;;;;5059143;28;20230;-78
2021/03/06 10:13:23;;;;;;;6.88;4.65;;;4.30;29.90;;;;;;5051482;28;20270;-79
2021/03/06 10:15:51;;;;;;;6.15;4.63;;;4.30;30.00;;;;;;5053192;28;20245;-80
2021/03/06 10:18:18;;;;;;;7.10;4.65;;;4.40;29.90;;;;;;5067545;28;20269;-79
2021/03/06 10:20:46;;;;;;;6.40;4.68;;;4.40;29.40;;;;;;5064532;28;20245;-78
2021/03/06 10:23:12;;;;;;;6.10;4.95;;;4.60;27.70;;;;;;5076202;28;20191;-79
2021/03/06 10:25:40;;;;;;;6.90;5.10;;;4.70;28.50;;;;;;5068226;28;20365;-78
2021/03/06 10:28:11;;;;;;;5.75;4.57;;;4.90;28.90;;;;;;5075289;28;20218;-79
2021/03/06 10:30:40;;;;;;;5.60;4.70;;;5.10;27.10;;;;;;5075477;28;20226;-79
2021/03/06 10:33:19;;;;;;;5.80;5.20;;;5.20;27.20;;;;;;5074612;28;20238;-79
2021/03/06 10:35:48;;;;;;;6.50;5.00;;;5.10;27.30;;;;;;5062786;28;20226;-78
2021/03/06 10:38:25;;;;;;;6.50;4.47;;;5.20;27.90;;;;;;5069853;28;20195;-79
2021/03/06 10:40:54;;;;;;;5.05;4.50;;;5.30;28.00;;;;;;5061836;28;20230;-79
2021/03/06 10:43:28;;;;;;;5.50;4.50;;;5.40;27.70;;;;;;5037875;28;20253;-79
2021/03/06 10:45:55;;;;;;;8.88;5.00;;;5.50;27.40;;;;;;5040695;28;20269;-79
2021/03/06 10:48:32;;;;;;;5.40;4.38;;;5.50;28.00;;;;;;5051807;28;20285;-79
2021/03/06 10:50:59;;;;;;;6.18;4.80;;;5.30;27.30;;;;;;5038078;28;20238;-79
2021/03/06 10:53:27;;;;;;;6.60;4.45;;;5.00;27.10;;;;;;5038954;28;20212;-80
2021/03/06 10:55:56;;;;;;;6.25;4.43;;;5.10;27.80;;;;;;5044229;28;20235;-81
2021/03/06 10:58:42;;;;;;;6.28;4.80;;;5.30;27.30;;;;;;5061364;28;20206;-81
2021/03/06 11:01:12;;;;;;;7.80;4.82;;;5.10;28.30;;;;;;5054661;28;20188;-81
2021/03/06 11:03:45;;;;;;;5.90;4.55;;;5.30;28.60;;;;;;5047603;28;20206;-83
2021/03/06 11:06:12;;;;;;;5.07;4.57;;;5.20;28.60;;;;;;5052237;28;20234;-82
2021/03/06 11:08:40;;;;;;;6.50;5.05;;;5.30;27.70;;;;;;5064146;28;20211;-82
2021/03/06 11:11:10;;;;;;;5.63;5.07;;;5.40;28.00;;;;;;5068333;28;20214;-80
2021/03/06 11:13:44;;;;;;;5.25;4.63;;;5.60;27.60;;;;;;5072117;28;20217;-81
2021/03/06 11:16:12;;;;;;;5.53;4.75;;;5.70;27.60;;;;;;5072065;28;20257;-82
2021/03/06 11:18:40;;;;;;;6.10;4.30;;;5.60;27.50;;;;;;5066497;28;20202;-82
2021/03/06 11:21:10;;;;;;;5.68;5.10;;;5.60;26.70;;;;;;5061083;28;20188;-80
2021/03/06 11:23:37;;;;;;;6.57;4.40;;;5.50;27.40;;;;;;5055840;28;20501;-83
2021/03/06 11:26:04;;;;;;;7.47;4.75;;;5.70;27.30;;;;;;5069679;28;20210;-80
2021/03/06 11:28:31;;;;;;;5.55;4.78;;;5.80;27.30;;;;;;5076020;28;20270;-83
2021/03/06 11:30:59;;;;;;;4.18;3.78;;;5.60;27.40;;;;;;5069288;28;20238;-80
2021/03/06 11:33:26;;;;;;;7.57;4.95;;;5.90;27.40;;;;;;5063924;28;20206;-81
2021/03/06 11:35:52;;;;;;;6.80;4.80;;;5.80;26.80;;;;;;5056348;28;20238;-82
2021/03/06 11:38:22;;;;;;;5.88;4.78;;;5.90;25.40;;;;;;5054817;28;20203;-82
2021/03/06 11:40:50;;;;;;;5.03;4.47;;;5.80;26.40;;;;;;5048158;28;20214;-82
2021/03/06 11:43:17;;;;;;;7.05;5.10;;;6.00;27.20;;;;;;5050711;28;20222;-82
2021/03/06 11:45:45;;;;;;;6.60;5.00;;;6.10;26.60;;;;;;5063922;28;20233;-82
2021/03/06 11:48:11;;;;;;;5.22;4.40;;;6.00;26.10;;;;;;5075272;28;20194;-83
2021/03/06 11:50:41;;;;;;;7.68;4.90;;;6.00;25.70;;;;;;5068887;28;20226;-82
2021/03/06 11:53:07;;;;;;;7.55;5.93;;;6.00;26.30;;;;;;5054761;28;20289;-81
2021/03/06 11:55:35;;;;;;;5.60;4.05;;;6.30;26.20;;;;;;5058133;28;20252;-82
2021/03/06 11:58:02;;;;;;;5.40;4.03;;;6.50;25.10;;;;;;5070712;28;20213;-81
2021/03/06 12:00:30;;;;;;;4.30;3.90;;;6.30;24.30;;;;;;5066177;28;20190;-80
2021/03/06 12:02:58;;;;;;;7.75;4.85;;;6.30;24.00;;;;;;5051048;28;20266;-82
2021/03/06 12:05:25;;;;;;;6.18;5.10;;;6.40;23.90;;;;;;5052152;28;20215;-82
2021/03/06 12:07:52;;;;;;;5.25;4.75;;;6.50;24.10;;;;;;5069355;28;20229;-81
2021/03/06 12:10:25;;;;;;;4.43;4.00;;;6.70;23.80;;;;;;5067767;28;20333;-80
2021/03/06 12:12:52;;;;;;;5.63;3.97;;;6.80;23.20;;;;;;5066141;28;20230;-79
2021/03/06 12:15:19;;;;;;;5.90;4.35;;;6.60;23.60;;;;;;5068689;28;20221;-78
2021/03/06 12:17:46;;;;;;;4.70;4.30;;;6.80;22.20;;;;;;5049913;28;20211;-79
2021/03/06 12:20:15;;;;;;;6.40;4.53;;;6.70;22.40;;;;;;5045531;28;20206;-79
2021/03/06 12:22:41;;;;;;;4.40;3.85;;;6.50;20.10;;;;;;5064890;28;20214;-79
2021/03/06 12:25:09;;;;;;;6.60;4.53;;;6.80;20.30;;;;;;5064880;28;20231;-80
2021/03/06 12:27:36;;;;;;;5.40;4.40;;;7.10;20.50;;;;;;5046990;28;20207;-79
2021/03/06 12:30:05;;;;;;;3.78;3.30;;;7.20;20.60;;;;;;5044131;28;20245;-80
2021/03/06 13:14:45;;;;;;;4.30;3.80;;;7.30;20.40;;;;;;5032650;28;20278;-76
2021/03/06 13:17:12;;;;;;;4.60;4.20;;;7.40;20.70;;;;;;5028336;28;20219;-78
2021/03/06 13:19:38;;;;;;;4.13;3.72;;;7.60;19.10;;;;;;5044203;28;20188;-77
2021/03/06 13:22:05;;;;;;;4.32;3.90;;;7.60;20.30;;;;;;5054269;28;20706;-76
2021/03/06 13:24:48;;;;;;;3.97;3.58;;;7.30;20.70;;;;;;5061149;28;20203;-77
2021/03/06 13:27:15;;;;;;;3.90;3.50;;;7.40;20.70;;;;;;5088375;23;20242;-82
2021/03/06 13:29:41;;;;;;;4.40;3.40;;;7.50;19.50;;;;;;5091673;28;20217;-84
2021/03/06 13:32:09;;;;;;;4.25;3.63;;;7.60;20.30;;;;;;5091428;28;20209;-80
2021/03/06 13:34:35;;;;;;;4.00;3.60;;;7.40;19.90;;;;;;5085630;28;20645;-81
2021/03/06 13:37:02;;;;;;;5.45;3.22;;;7.30;20.10;;;;;;5078831;28;20226;-80
2021/03/06 13:39:28;;;;;;;3.30;3.00;;;7.50;20.60;;;;;;5083121;28;20217;-82
2021/03/06 13:41:55;;;;;;;5.28;4.00;;;7.60;20.10;;;;;;5073053;28;20670;-81
2021/03/06 13:44:21;;;;;;;4.43;3.40;;;7.70;18.90;;;;;;5070998;28;20203;-81
2021/03/06 13:46:48;;;;;;;3.53;3.15;;;7.70;19.50;;;;;;5065730;28;20227;-81